sensor_id;sensor_type;location;lat;lon;timestamp;P1;durP1;ratioP1;P2;durP2;ratioP2
49444;SDS011;35323;43.080;-81.378;2023-03-01T00:01:30;3.88;;;2.40;;
49444;SDS011;35323;43.080;-81.378;2023-03-01T00:03:58;4.97;;;2.40;;
49444;SDS011;35323;43.080;-81.378;2023-03-01T00:06:26;4.20;;;3.17;;
49444;SDS011;35323;43.080;-81.378;2023-03-01T00:08:55;4.30;;;2.83;;
49444;SDS011;35323;43.080;-81.378;2023-03-01T00:11:23;5.18;;;2.67;;
49444;SDS011;35323;43.080;-81.378;2023-03-01T00:13:53;2.03;;;1.83;;
49444;SDS011;35323;43.080;-81.378;2023-03-01T00:16:28;3.58;;;2.95;;
49444;SDS011;35323;43.080;-81.378;2023-03-01T00:18:57;3.90;;;2.60;;
49444;SDS011;35323;43.080;-81.378;2023-03-01T00:21:25;2.42;;;2.03;;
49444;SDS011;35323;43.080;-81.378;2023-03-01T00:23:53;3.22;;;2.47;;
49444;SDS011;35323;43.080;-81.378;2023-03-01T00:26:22;2.42;;;2.20;;
49444;SDS011;35323;43.080;-81.378;2023-03-01T00:28:53;3.95;;;2.70;;
49444;SDS011;35323;43.080;-81.378;2023-03-01T00:31:25;3.40;;;2.53;;
49444;SDS011;35323;43.080;-81.378;2023-03-01T00:36:25;3.85;;;2.55;;
49444;SDS011;35323;43.080;-81.378;2023-03-01T00:38:53;3.83;;;2.42;;
49444;SDS011;35323;43.080;-81.378;2023-03-01T00:41:21;3.50;;;2.50;;
49444;SDS011;35323;43.080;-81.378;2023-03-01T00:43:53;4.70;;;3.53;;
49444;SDS011;35323;43.080;-81.378;2023-03-01T00:46:22;2.53;;;2.30;;
49444;SDS011;35323;43.080;-81.378;2023-03-01T00:48:50;4.63;;;3.70;;
49444;SDS011;35323;43.080;-81.378;2023-03-01T00:51:19;2.35;;;1.95;;
49444;SDS011;35323;43.080;-81.378;2023-03-01T00:53:49;3.92;;;2.55;;
49444;SDS011;35323;43.080;-81.378;2023-03-01T00:56:17;3.28;;;2.95;;
49444;SDS011;35323;43.080;-81.378;2023-03-01T00:58:45;4.38;;;3.30;;
49444;SDS011;35323;43.080;-81.378;2023-03-01T01:01:13;2.97;;;2.67;;
49444;SDS011;35323;43.080;-81.378;2023-03-01T01:03:55;2.73;;;2.53;;
49444;SDS011;35323;43.080;-81.378;2023-03-01T01:06:24;3.78;;;3.05;;
49444;SDS011;35323;43.080;-81.378;2023-03-01T01:08:54;4.13;;;2.30;;
49444;SDS011;35323;43.080;-81.378;2023-03-01T01:11:24;4.22;;;2.35;;
49444;SDS011;35323;43.080;-81.378;2023-03-01T01:13:55;12.48;;;3.35;;
49444;SDS011;35323;43.080;-81.378;2023-03-01T01:16:24;2.00;;;1.90;;
49444;SDS011;35323;43.080;-81.378;2023-03-01T01:18:52;2.88;;;2.55;;
49444;SDS011;35323;43.080;-81.378;2023-03-01T01:21:20;3.65;;;2.90;;
49444;SDS011;35323;43.080;-81.378;2023-03-01T01:23:49;3.83;;;2.85;;
49444;SDS011;35323;43.080;-81.378;2023-03-01T01:26:27;4.55;;;3.80;;
49444;SDS011;35323;43.080;-81.378;2023-03-01T01:28:56;3.38;;;2.25;;
49444;SDS011;35323;43.080;-81.378;2023-03-01T01:31:24;3.88;;;2.72;;
49444;SDS011;35323;43.080;-81.378;2023-03-01T01:33:52;3.45;;;2.70;;
49444;SDS011;35323;43.080;-81.378;2023-03-01T01:36:20;3.58;;;3.20;;
49444;SDS011;35323;43.080;-81.378;2023-03-01T01:38:48;5.50;;;2.83;;
49444;SDS011;35323;43.080;-81.378;2023-03-01T01:41:15;4.18;;;3.78;;
49444;SDS011;35323;43.080;-81.378;2023-03-01T01:43:44;10.05;;;3.80;;
49444;SDS011;35323;43.080;-81.378;2023-03-01T01:46:31;3.42;;;2.78;;
49444;SDS011;35323;43.080;-81.378;2023-03-01T01:49:00;4.47;;;3.75;;
49444;SDS011;35323;43.080;-81.378;2023-03-01T01:51:30;3.47;;;3.10;;
49444;SDS011;35323;43.080;-81.378;2023-03-01T01:54:09;4.35;;;3.50;;
49444;SDS011;35323;43.080;-81.378;2023-03-01T01:56:37;5.57;;;3.58;;
49444;SDS011;35323;43.080;-81.378;2023-03-01T01:59:05;5.00;;;4.07;;
49444;SDS011;35323;43.080;-81.378;2023-03-01T02:01:32;5.88;;;3.83;;
49444;SDS011;35323;43.080;-81.378;2023-03-01T02:04:01;9.43;;;5.18;;
49444;SDS011;35323;43.080;-81.378;2023-03-01T02:06:39;4.85;;;3.58;;
49444;SDS011;35323;43.080;-81.378;2023-03-01T02:09:11;3.55;;;2.83;;
49444;SDS011;35323;43.080;-81.378;2023-03-01T02:11:40;5.57;;;3.45;;
49444;SDS011;35323;43.080;-81.378;2023-03-01T02:14:08;4.53;;;3.97;;
49444;SDS011;35323;43.080;-81.378;2023-03-01T02:16:36;5.20;;;4.13;;
49444;SDS011;35323;43.080;-81.378;2023-03-01T02:19:04;5.25;;;4.53;;
49444;SDS011;35323;43.080;-81.378;2023-03-01T02:21:39;7.53;;;4.13;;
49444;SDS011;35323;43.080;-81.378;2023-03-01T02:26:49;6.40;;;3.70;;
49444;SDS011;35323;43.080;-81.378;2023-03-01T02:29:17;7.68;;;4.63;;
49444;SDS011;35323;43.080;-81.378;2023-03-01T02:31:45;5.57;;;3.97;;
49444;SDS011;35323;43.080;-81.378;2023-03-01T02:34:13;6.72;;;4.95;;
49444;SDS011;35323;43.080;-81.378;2023-03-01T02:36:44;6.93;;;5.13;;
49444;SDS011;35323;43.080;-81.378;2023-03-01T02:39:21;6.07;;;4.55;;
49444;SDS011;35323;43.080;-81.378;2023-03-01T02:41:50;7.90;;;4.93;;
49444;SDS011;35323;43.080;-81.378;2023-03-01T02:44:18;9.00;;;5.85;;
49444;SDS011;35323;43.080;-81.378;2023-03-01T02:46:48;10.85;;;5.68;;
49444;SDS011;35323;43.080;-81.378;2023-03-01T02:49:20;9.00;;;5.25;;
49444;SDS011;35323;43.080;-81.378;2023-03-01T02:51:52;10.18;;;6.25;;
49444;SDS011;35323;43.080;-81.378;2023-03-01T02:54:33;11.30;;;5.57;;
49444;SDS011;35323;43.080;-81.378;2023-03-01T02:57:04;9.02;;;7.60;;
49444;SDS011;35323;43.080;-81.378;2023-03-01T02:59:32;9.30;;;5.32;;
49444;SDS011;35323;43.080;-81.378;2023-03-01T03:02:06;9.93;;;6.85;;
49444;SDS011;35323;43.080;-81.378;2023-03-01T03:04:34;10.73;;;6.63;;
49444;SDS011;35323;43.080;-81.378;2023-03-01T03:07:02;13.30;;;6.38;;
49444;SDS011;35323;43.080;-81.378;2023-03-01T03:09:29;13.55;;;6.25;;
49444;SDS011;35323;43.080;-81.378;2023-03-01T03:11:57;12.80;;;5.78;;
49444;SDS011;35323;43.080;-81.378;2023-03-01T03:14:25;12.35;;;6.95;;
49444;SDS011;35323;43.080;-81.378;2023-03-01T03:16:52;8.23;;;6.25;;
49444;SDS011;35323;43.080;-81.378;2023-03-01T03:19:20;9.13;;;6.47;;
49444;SDS011;35323;43.080;-81.378;2023-03-01T03:21:48;11.32;;;6.97;;
49444;SDS011;35323;43.080;-81.378;2023-03-01T03:24:16;13.15;;;7.75;;
49444;SDS011;35323;43.080;-81.378;2023-03-01T03:26:45;13.23;;;7.43;;
49444;SDS011;35323;43.080;-81.378;2023-03-01T03:29:12;13.93;;;6.70;;
49444;SDS011;35323;43.080;-81.378;2023-03-01T03:31:41;14.98;;;7.63;;
49444;SDS011;35323;43.080;-81.378;2023-03-01T03:34:08;13.95;;;7.03;;
49444;SDS011;35323;43.080;-81.378;2023-03-01T03:36:44;11.75;;;7.72;;
49444;SDS011;35323;43.080;-81.378;2023-03-01T03:39:13;9.82;;;5.75;;
49444;SDS011;35323;43.080;-81.378;2023-03-01T03:41:40;8.20;;;5.80;;
49444;SDS011;35323;43.080;-81.378;2023-03-01T03:44:08;13.13;;;5.85;;
49444;SDS011;35323;43.080;-81.378;2023-03-01T03:46:35;10.05;;;5.82;;
49444;SDS011;35323;43.080;-81.378;2023-03-01T03:49:03;9.27;;;6.65;;
49444;SDS011;35323;43.080;-81.378;2023-03-01T03:51:30;8.48;;;6.63;;
49444;SDS011;35323;43.080;-81.378;2023-03-01T03:53:58;8.90;;;5.78;;
49444;SDS011;35323;43.080;-81.378;2023-03-01T03:56:26;9.77;;;6.68;;
49444;SDS011;35323;43.080;-81.378;2023-03-01T03:58:54;10.20;;;6.22;;
49444;SDS011;35323;43.080;-81.378;2023-03-01T04:01:21;13.23;;;6.53;;
49444;SDS011;35323;43.080;-81.378;2023-03-01T04:03:50;11.18;;;6.43;;
49444;SDS011;35323;43.080;-81.378;2023-03-01T04:06:22;8.55;;;6.00;;
49444;SDS011;35323;43.080;-81.378;2023-03-01T04:08:49;9.18;;;6.75;;
49444;SDS011;35323;43.080;-81.378;2023-03-01T04:11:18;9.90;;;6.00;;
49444;SDS011;35323;43.080;-81.378;2023-03-01T04:13:55;10.70;;;6.97;;
49444;SDS011;35323;43.080;-81.378;2023-03-01T04:16:23;7.28;;;4.43;;
49444;SDS011;35323;43.080;-81.378;2023-03-01T04:18:51;7.82;;;5.55;;
49444;SDS011;35323;43.080;-81.378;2023-03-01T04:21:20;10.30;;;5.63;;
49444;SDS011;35323;43.080;-81.378;2023-03-01T04:23:48;11.32;;;5.68;;
49444;SDS011;35323;43.080;-81.378;2023-03-01T04:26:19;10.82;;;5.68;;
49444;SDS011;35323;43.080;-81.378;2023-03-01T04:28:50;9.52;;;5.72;;
49444;SDS011;35323;43.080;-81.378;2023-03-01T04:31:18;12.65;;;7.85;;
49444;SDS011;35323;43.080;-81.378;2023-03-01T04:33:49;10.27;;;5.38;;
49444;SDS011;35323;43.080;-81.378;2023-03-01T04:36:21;10.73;;;5.78;;
49444;SDS011;35323;43.080;-81.378;2023-03-01T04:38:49;12.15;;;7.50;;
49444;SDS011;35323;43.080;-81.378;2023-03-01T04:41:18;12.52;;;5.82;;
49444;SDS011;35323;43.080;-81.378;2023-03-01T04:43:46;9.45;;;6.07;;
49444;SDS011;35323;43.080;-81.378;2023-03-01T04:46:16;12.27;;;7.28;;
49444;SDS011;35323;43.080;-81.378;2023-03-01T04:48:44;17.08;;;8.00;;
49444;SDS011;35323;43.080;-81.378;2023-03-01T04:51:12;27.67;;;11.43;;
49444;SDS011;35323;43.080;-81.378;2023-03-01T04:53:43;20.70;;;8.38;;
49444;SDS011;35323;43.080;-81.378;2023-03-01T04:56:12;44.78;;;11.82;;
49444;SDS011;35323;43.080;-81.378;2023-03-01T04:58:40;14.25;;;7.75;;
49444;SDS011;35323;43.080;-81.378;2023-03-01T05:01:09;18.15;;;7.70;;
49444;SDS011;35323;43.080;-81.378;2023-03-01T05:03:45;19.10;;;7.50;;
49444;SDS011;35323;43.080;-81.378;2023-03-01T05:06:14;22.85;;;9.57;;
49444;SDS011;35323;43.080;-81.378;2023-03-01T05:08:42;14.65;;;8.13;;
49444;SDS011;35323;43.080;-81.378;2023-03-01T05:11:10;20.55;;;9.20;;
49444;SDS011;35323;43.080;-81.378;2023-03-01T05:13:41;69.20;;;18.33;;
49444;SDS011;35323;43.080;-81.378;2023-03-01T05:16:11;100.85;;;14.57;;
49444;SDS011;35323;43.080;-81.378;2023-03-01T05:18:39;43.08;;;12.90;;
49444;SDS011;35323;43.080;-81.378;2023-03-01T05:21:08;17.55;;;7.30;;
49444;SDS011;35323;43.080;-81.378;2023-03-01T05:23:36;12.98;;;6.85;;
49444;SDS011;35323;43.080;-81.378;2023-03-01T05:26:04;18.63;;;8.68;;
49444;SDS011;35323;43.080;-81.378;2023-03-01T05:28:36;22.08;;;10.90;;
49444;SDS011;35323;43.080;-81.378;2023-03-01T05:31:05;23.70;;;9.55;;
49444;SDS011;35323;43.080;-81.378;2023-03-01T05:33:37;11.38;;;6.57;;
49444;SDS011;35323;43.080;-81.378;2023-03-01T05:36:06;48.20;;;11.80;;
49444;SDS011;35323;43.080;-81.378;2023-03-01T05:38:34;16.80;;;7.10;;
49444;SDS011;35323;43.080;-81.378;2023-03-01T05:41:02;23.63;;;8.95;;
49444;SDS011;35323;43.080;-81.378;2023-03-01T05:43:31;48.45;;;11.73;;
49444;SDS011;35323;43.080;-81.378;2023-03-01T05:46:01;19.17;;;8.98;;
49444;SDS011;35323;43.080;-81.378;2023-03-01T05:48:29;17.08;;;8.48;;
49444;SDS011;35323;43.080;-81.378;2023-03-01T05:50:58;18.52;;;6.40;;
49444;SDS011;35323;43.080;-81.378;2023-03-01T05:53:27;23.77;;;9.45;;
49444;SDS011;35323;43.080;-81.378;2023-03-01T05:55:54;48.30;;;11.70;;
49444;SDS011;35323;43.080;-81.378;2023-03-01T05:58:22;14.98;;;7.60;;
49444;SDS011;35323;43.080;-81.378;2023-03-01T06:00:49;18.13;;;9.68;;
49444;SDS011;35323;43.080;-81.378;2023-03-01T06:03:20;22.05;;;9.20;;
49444;SDS011;35323;43.080;-81.378;2023-03-01T06:05:47;19.35;;;9.77;;
49444;SDS011;35323;43.080;-81.378;2023-03-01T06:08:15;15.30;;;11.85;;
49444;SDS011;35323;43.080;-81.378;2023-03-01T06:10:42;28.15;;;10.10;;
49444;SDS011;35323;43.080;-81.378;2023-03-01T06:13:10;13.77;;;8.27;;
49444;SDS011;35323;43.080;-81.378;2023-03-01T06:15:38;13.98;;;8.45;;
49444;SDS011;35323;43.080;-81.378;2023-03-01T06:18:06;16.73;;;8.50;;
49444;SDS011;35323;43.080;-81.378;2023-03-01T06:20:33;19.48;;;8.45;;
49444;SDS011;35323;43.080;-81.378;2023-03-01T06:23:01;17.60;;;7.90;;
49444;SDS011;35323;43.080;-81.378;2023-03-01T06:25:29;15.43;;;9.00;;
49444;SDS011;35323;43.080;-81.378;2023-03-01T06:27:56;13.43;;;9.20;;
49444;SDS011;35323;43.080;-81.378;2023-03-01T06:30:25;21.30;;;9.63;;
49444;SDS011;35323;43.080;-81.378;2023-03-01T06:32:53;21.05;;;8.20;;
49444;SDS011;35323;43.080;-81.378;2023-03-01T06:35:27;12.50;;;8.85;;
49444;SDS011;35323;43.080;-81.378;2023-03-01T06:37:58;23.63;;;12.45;;
49444;SDS011;35323;43.080;-81.378;2023-03-01T06:40:27;15.93;;;8.38;;
49444;SDS011;35323;43.080;-81.378;2023-03-01T06:42:55;16.48;;;8.40;;
49444;SDS011;35323;43.080;-81.378;2023-03-01T06:45:22;17.58;;;7.53;;
49444;SDS011;35323;43.080;-81.378;2023-03-01T06:47:50;21.92;;;11.20;;
49444;SDS011;35323;43.080;-81.378;2023-03-01T06:50:18;17.98;;;9.52;;
49444;SDS011;35323;43.080;-81.378;2023-03-01T06:52:45;17.08;;;9.80;;
49444;SDS011;35323;43.080;-81.378;2023-03-01T06:55:12;19.23;;;9.68;;
49444;SDS011;35323;43.080;-81.378;2023-03-01T06:57:40;15.30;;;9.98;;
49444;SDS011;35323;43.080;-81.378;2023-03-01T07:00:08;11.63;;;9.75;;
49444;SDS011;35323;43.080;-81.378;2023-03-01T07:02:35;21.40;;;9.55;;
49444;SDS011;35323;43.080;-81.378;2023-03-01T07:05:03;17.85;;;9.73;;
49444;SDS011;35323;43.080;-81.378;2023-03-01T07:07:31;20.85;;;9.85;;
49444;SDS011;35323;43.080;-81.378;2023-03-01T07:09:58;19.40;;;10.75;;
49444;SDS011;35323;43.080;-81.378;2023-03-01T07:12:26;13.25;;;8.02;;
49444;SDS011;35323;43.080;-81.378;2023-03-01T07:14:53;14.32;;;6.65;;
49444;SDS011;35323;43.080;-81.378;2023-03-01T07:17:21;21.90;;;10.57;;
49444;SDS011;35323;43.080;-81.378;2023-03-01T07:19:49;13.88;;;8.80;;
49444;SDS011;35323;43.080;-81.378;2023-03-01T07:22:16;14.43;;;8.30;;
49444;SDS011;35323;43.080;-81.378;2023-03-01T07:24:44;18.15;;;9.00;;
49444;SDS011;35323;43.080;-81.378;2023-03-01T07:27:11;13.27;;;8.60;;
49444;SDS011;35323;43.080;-81.378;2023-03-01T07:29:39;16.45;;;6.28;;
49444;SDS011;35323;43.080;-81.378;2023-03-01T07:32:06;15.25;;;8.05;;
49444;SDS011;35323;43.080;-81.378;2023-03-01T07:34:34;11.45;;;6.72;;
49444;SDS011;35323;43.080;-81.378;2023-03-01T07:37:05;17.30;;;8.05;;
49444;SDS011;35323;43.080;-81.378;2023-03-01T07:39:32;11.45;;;6.82;;
49444;SDS011;35323;43.080;-81.378;2023-03-01T07:42:00;11.43;;;7.63;;
49444;SDS011;35323;43.080;-81.378;2023-03-01T07:44:28;10.63;;;6.93;;
49444;SDS011;35323;43.080;-81.378;2023-03-01T07:46:55;8.65;;;6.25;;
49444;SDS011;35323;43.080;-81.378;2023-03-01T07:49:25;9.45;;;6.15;;
49444;SDS011;35323;43.080;-81.378;2023-03-01T07:51:53;12.15;;;6.78;;
49444;SDS011;35323;43.080;-81.378;2023-03-01T07:54:21;9.90;;;5.22;;
49444;SDS011;35323;43.080;-81.378;2023-03-01T07:56:49;8.70;;;5.90;;
49444;SDS011;35323;43.080;-81.378;2023-03-01T07:59:16;11.32;;;6.68;;
49444;SDS011;35323;43.080;-81.378;2023-03-01T08:01:44;9.20;;;6.28;;
49444;SDS011;35323;43.080;-81.378;2023-03-01T08:04:12;7.65;;;5.30;;
49444;SDS011;35323;43.080;-81.378;2023-03-01T08:06:40;8.60;;;5.78;;
49444;SDS011;35323;43.080;-81.378;2023-03-01T08:09:07;7.82;;;5.65;;
49444;SDS011;35323;43.080;-81.378;2023-03-01T08:11:35;8.63;;;5.28;;
49444;SDS011;35323;43.080;-81.378;2023-03-01T08:14:03;8.88;;;6.20;;
49444;SDS011;35323;43.080;-81.378;2023-03-01T08:16:31;14.27;;;6.15;;
49444;SDS011;35323;43.080;-81.378;2023-03-01T08:19:07;7.75;;;4.43;;
49444;SDS011;35323;43.080;-81.378;2023-03-01T08:21:35;13.52;;;6.57;;
49444;SDS011;35323;43.080;-81.378;2023-03-01T08:24:04;9.40;;;6.15;;
49444;SDS011;35323;43.080;-81.378;2023-03-01T08:26:32;12.25;;;6.40;;
49444;SDS011;35323;43.080;-81.378;2023-03-01T08:29:00;9.95;;;6.38;;
49444;SDS011;35323;43.080;-81.378;2023-03-01T08:31:29;7.00;;;5.03;;
49444;SDS011;35323;43.080;-81.378;2023-03-01T08:33:57;8.85;;;5.95;;
49444;SDS011;35323;43.080;-81.378;2023-03-01T08:36:27;10.32;;;6.30;;
49444;SDS011;35323;43.080;-81.378;2023-03-01T08:38:55;8.10;;;4.95;;
49444;SDS011;35323;43.080;-81.378;2023-03-01T08:41:23;13.98;;;5.22;;
49444;SDS011;35323;43.080;-81.378;2023-03-01T08:43:51;6.38;;;5.57;;
49444;SDS011;35323;43.080;-81.378;2023-03-01T08:46:19;10.45;;;6.03;;
49444;SDS011;35323;43.080;-81.378;2023-03-01T08:48:47;9.85;;;6.18;;
49444;SDS011;35323;43.080;-81.378;2023-03-01T08:51:16;6.55;;;5.90;;
49444;SDS011;35323;43.080;-81.378;2023-03-01T08:53:45;10.98;;;6.53;;
49444;SDS011;35323;43.080;-81.378;2023-03-01T08:56:12;13.68;;;6.55;;
49444;SDS011;35323;43.080;-81.378;2023-03-01T08:58:43;8.27;;;3.97;;
49444;SDS011;35323;43.080;-81.378;2023-03-01T09:01:11;10.68;;;7.07;;
49444;SDS011;35323;43.080;-81.378;2023-03-01T09:03:39;8.68;;;5.13;;
49444;SDS011;35323;43.080;-81.378;2023-03-01T09:06:10;7.30;;;5.00;;
49444;SDS011;35323;43.080;-81.378;2023-03-01T09:08:39;7.95;;;5.05;;
49444;SDS011;35323;43.080;-81.378;2023-03-01T09:11:08;12.63;;;5.68;;
49444;SDS011;35323;43.080;-81.378;2023-03-01T09:13:36;10.77;;;5.68;;
49444;SDS011;35323;43.080;-81.378;2023-03-01T09:16:04;6.95;;;5.63;;
49444;SDS011;35323;43.080;-81.378;2023-03-01T09:18:32;4.85;;;4.28;;
49444;SDS011;35323;43.080;-81.378;2023-03-01T09:21:01;5.72;;;4.70;;
49444;SDS011;35323;43.080;-81.378;2023-03-01T09:23:29;13.38;;;6.35;;
49444;SDS011;35323;43.080;-81.378;2023-03-01T09:25:56;7.50;;;5.38;;
49444;SDS011;35323;43.080;-81.378;2023-03-01T09:28:24;7.28;;;4.97;;
49444;SDS011;35323;43.080;-81.378;2023-03-01T09:30:59;9.23;;;5.53;;
49444;SDS011;35323;43.080;-81.378;2023-03-01T09:33:30;10.48;;;5.55;;
49444;SDS011;35323;43.080;-81.378;2023-03-01T09:36:02;6.60;;;5.30;;
49444;SDS011;35323;43.080;-81.378;2023-03-01T09:38:30;9.93;;;6.25;;
49444;SDS011;35323;43.080;-81.378;2023-03-01T09:40:58;9.18;;;5.28;;
49444;SDS011;35323;43.080;-81.378;2023-03-01T09:46:04;8.57;;;4.22;;
49444;SDS011;35323;43.080;-81.378;2023-03-01T09:48:36;11.98;;;4.88;;
49444;SDS011;35323;43.080;-81.378;2023-03-01T09:51:06;9.65;;;5.32;;
49444;SDS011;35323;43.080;-81.378;2023-03-01T09:53:38;9.80;;;5.55;;
49444;SDS011;35323;43.080;-81.378;2023-03-01T09:56:10;6.75;;;5.10;;
49444;SDS011;35323;43.080;-81.378;2023-03-01T10:01:15;7.32;;;5.05;;
49444;SDS011;35323;43.080;-81.378;2023-03-01T10:06:33;8.82;;;5.25;;
49444;SDS011;35323;43.080;-81.378;2023-03-01T10:09:16;9.38;;;6.00;;
49444;SDS011;35323;43.080;-81.378;2023-03-01T10:11:45;10.55;;;5.28;;
49444;SDS011;35323;43.080;-81.378;2023-03-01T10:17:02;9.70;;;6.07;;
49444;SDS011;35323;43.080;-81.378;2023-03-01T10:19:31;7.43;;;4.43;;
49444;SDS011;35323;43.080;-81.378;2023-03-01T10:22:02;10.85;;;4.97;;
49444;SDS011;35323;43.080;-81.378;2023-03-01T10:24:32;8.50;;;6.13;;
49444;SDS011;35323;43.080;-81.378;2023-03-01T10:27:04;10.52;;;5.30;;
49444;SDS011;35323;43.080;-81.378;2023-03-01T10:30:10;9.80;;;4.95;;
49444;SDS011;35323;43.080;-81.378;2023-03-01T10:34:54;7.93;;;4.30;;
49444;SDS011;35323;43.080;-81.378;2023-03-01T10:37:22;11.07;;;5.95;;
49444;SDS011;35323;43.080;-81.378;2023-03-01T10:39:56;9.93;;;5.72;;
49444;SDS011;35323;43.080;-81.378;2023-03-01T10:42:34;5.95;;;4.63;;
49444;SDS011;35323;43.080;-81.378;2023-03-01T10:50:36;5.47;;;3.80;;
49444;SDS011;35323;43.080;-81.378;2023-03-01T10:53:16;5.90;;;3.83;;
49444;SDS011;35323;43.080;-81.378;2023-03-01T10:55:46;6.35;;;4.78;;
49444;SDS011;35323;43.080;-81.378;2023-03-01T11:00:49;8.32;;;4.38;;
49444;SDS011;35323;43.080;-81.378;2023-03-01T11:03:25;8.57;;;5.47;;
49444;SDS011;35323;43.080;-81.378;2023-03-01T11:06:19;6.57;;;4.22;;
49444;SDS011;35323;43.080;-81.378;2023-03-01T11:08:44;7.30;;;4.85;;
49444;SDS011;35323;43.080;-81.378;2023-03-01T11:13:56;7.28;;;4.97;;
49444;SDS011;35323;43.080;-81.378;2023-03-01T11:16:25;9.05;;;4.82;;
49444;SDS011;35323;43.080;-81.378;2023-03-01T11:18:57;5.90;;;4.97;;
49444;SDS011;35323;43.080;-81.378;2023-03-01T11:21:25;5.57;;;4.13;;
49444;SDS011;35323;43.080;-81.378;2023-03-01T11:23:54;8.60;;;5.10;;
49444;SDS011;35323;43.080;-81.378;2023-03-01T11:26:21;5.40;;;4.65;;
49444;SDS011;35323;43.080;-81.378;2023-03-01T11:28:55;8.60;;;4.35;;
49444;SDS011;35323;43.080;-81.378;2023-03-01T11:31:24;5.20;;;4.07;;
49444;SDS011;35323;43.080;-81.378;2023-03-01T11:34:10;6.28;;;3.83;;
49444;SDS011;35323;43.080;-81.378;2023-03-01T11:41:59;6.60;;;4.80;;
49444;SDS011;35323;43.080;-81.378;2023-03-01T11:44:43;6.97;;;5.40;;
49444;SDS011;35323;43.080;-81.378;2023-03-01T11:50:23;6.22;;;4.20;;
49444;SDS011;35323;43.080;-81.378;2023-03-01T12:01:12;11.90;;;6.15;;
49444;SDS011;35323;43.080;-81.378;2023-03-01T12:03:46;6.55;;;5.13;;
49444;SDS011;35323;43.080;-81.378;2023-03-01T12:08:47;6.47;;;4.28;;
49444;SDS011;35323;43.080;-81.378;2023-03-01T12:14:09;6.75;;;4.15;;
49444;SDS011;35323;43.080;-81.378;2023-03-01T12:16:47;12.25;;;5.00;;
49444;SDS011;35323;43.080;-81.378;2023-03-01T12:22:17;9.98;;;5.43;;
49444;SDS011;35323;43.080;-81.378;2023-03-01T12:29:59;7.88;;;5.32;;
49444;SDS011;35323;43.080;-81.378;2023-03-01T12:32:41;9.35;;;6.32;;
49444;SDS011;35323;43.080;-81.378;2023-03-01T12:35:26;7.22;;;4.55;;
49444;SDS011;35323;43.080;-81.378;2023-03-01T12:46:19;7.13;;;3.95;;
49444;SDS011;35323;43.080;-81.378;2023-03-01T12:53:50;6.30;;;4.22;;
49444;SDS011;35323;43.080;-81.378;2023-03-01T12:56:22;10.02;;;4.68;;
49444;SDS011;35323;43.080;-81.378;2023-03-01T12:59:09;9.35;;;5.90;;
49444;SDS011;35323;43.080;-81.378;2023-03-01T13:04:48;9.00;;;5.03;;
49444;SDS011;35323;43.080;-81.378;2023-03-01T13:07:13;10.77;;;6.40;;
49444;SDS011;35323;43.080;-81.378;2023-03-01T13:09:48;12.52;;;5.50;;
49444;SDS011;35323;43.080;-81.378;2023-03-01T13:15:03;8.05;;;5.72;;
49444;SDS011;35323;43.080;-81.378;2023-03-01T13:17:32;7.22;;;4.78;;
49444;SDS011;35323;43.080;-81.378;2023-03-01T13:20:00;8.30;;;5.25;;
49444;SDS011;35323;43.080;-81.378;2023-03-01T13:22:31;6.38;;;4.50;;
49444;SDS011;35323;43.080;-81.378;2023-03-01T13:25:13;7.45;;;5.32;;
49444;SDS011;35323;43.080;-81.378;2023-03-01T13:27:43;6.50;;;4.80;;
49444;SDS011;35323;43.080;-81.378;2023-03-01T13:35:44;7.07;;;3.90;;
49444;SDS011;35323;43.080;-81.378;2023-03-01T13:40:59;7.90;;;4.82;;
49444;SDS011;35323;43.080;-81.378;2023-03-01T13:43:34;8.90;;;4.63;;
49444;SDS011;35323;43.080;-81.378;2023-03-01T13:46:10;5.57;;;3.40;;
49444;SDS011;35323;43.080;-81.378;2023-03-01T13:48:38;6.75;;;4.60;;
49444;SDS011;35323;43.080;-81.378;2023-03-01T13:51:08;7.50;;;4.88;;
49444;SDS011;35323;43.080;-81.378;2023-03-01T13:53:37;8.73;;;4.10;;
49444;SDS011;35323;43.080;-81.378;2023-03-01T13:56:10;6.70;;;4.22;;
49444;SDS011;35323;43.080;-81.378;2023-03-01T14:01:26;5.95;;;4.63;;
49444;SDS011;35323;43.080;-81.378;2023-03-01T14:03:54;6.70;;;4.30;;
49444;SDS011;35323;43.080;-81.378;2023-03-01T14:06:27;8.35;;;4.18;;
49444;SDS011;35323;43.080;-81.378;2023-03-01T14:09:22;6.13;;;3.97;;
49444;SDS011;35323;43.080;-81.378;2023-03-01T14:16:56;6.40;;;3.83;;
49444;SDS011;35323;43.080;-81.378;2023-03-01T14:19:27;7.82;;;5.28;;
49444;SDS011;35323;43.080;-81.378;2023-03-01T14:24:31;6.70;;;4.63;;
49444;SDS011;35323;43.080;-81.378;2023-03-01T14:27:01;5.93;;;4.05;;
49444;SDS011;35323;43.080;-81.378;2023-03-01T14:29:36;9.55;;;5.57;;
49444;SDS011;35323;43.080;-81.378;2023-03-01T14:32:08;6.70;;;3.92;;
49444;SDS011;35323;43.080;-81.378;2023-03-01T14:34:36;5.05;;;3.15;;
49444;SDS011;35323;43.080;-81.378;2023-03-01T14:39:36;5.68;;;3.25;;
49444;SDS011;35323;43.080;-81.378;2023-03-01T14:42:04;5.47;;;3.22;;
49444;SDS011;35323;43.080;-81.378;2023-03-01T14:44:47;4.78;;;3.28;;
49444;SDS011;35323;43.080;-81.378;2023-03-01T14:47:29;4.05;;;3.60;;
49444;SDS011;35323;43.080;-81.378;2023-03-01T14:50:05;7.88;;;3.83;;
49444;SDS011;35323;43.080;-81.378;2023-03-01T14:52:36;5.95;;;3.10;;
49444;SDS011;35323;43.080;-81.378;2023-03-01T14:55:06;4.32;;;3.78;;
49444;SDS011;35323;43.080;-81.378;2023-03-01T14:57:34;7.93;;;3.88;;
49444;SDS011;35323;43.080;-81.378;2023-03-01T15:00:03;7.68;;;4.60;;
49444;SDS011;35323;43.080;-81.378;2023-03-01T15:02:32;6.70;;;3.90;;
49444;SDS011;35323;43.080;-81.378;2023-03-01T15:05:01;7.65;;;3.85;;
49444;SDS011;35323;43.080;-81.378;2023-03-01T15:07:35;3.03;;;2.63;;
49444;SDS011;35323;43.080;-81.378;2023-03-01T15:10:05;8.65;;;4.32;;
49444;SDS011;35323;43.080;-81.378;2023-03-01T15:12:38;4.15;;;2.75;;
49444;SDS011;35323;43.080;-81.378;2023-03-01T15:15:19;5.63;;;3.70;;
49444;SDS011;35323;43.080;-81.378;2023-03-01T15:17:52;6.60;;;3.42;;
49444;SDS011;35323;43.080;-81.378;2023-03-01T15:20:23;6.38;;;3.50;;
49444;SDS011;35323;43.080;-81.378;2023-03-01T15:22:53;7.38;;;5.97;;
49444;SDS011;35323;43.080;-81.378;2023-03-01T15:25:23;5.80;;;3.50;;
49444;SDS011;35323;43.080;-81.378;2023-03-01T15:27:53;5.65;;;3.50;;
49444;SDS011;35323;43.080;-81.378;2023-03-01T15:30:22;11.48;;;3.65;;
49444;SDS011;35323;43.080;-81.378;2023-03-01T15:35:47;5.60;;;4.28;;
49444;SDS011;35323;43.080;-81.378;2023-03-01T15:38:26;6.93;;;3.90;;
49444;SDS011;35323;43.080;-81.378;2023-03-01T15:40:55;4.70;;;3.35;;
49444;SDS011;35323;43.080;-81.378;2023-03-01T15:46:44;7.40;;;3.78;;
49444;SDS011;35323;43.080;-81.378;2023-03-01T15:49:18;4.53;;;2.70;;
49444;SDS011;35323;43.080;-81.378;2023-03-01T15:51:54;6.07;;;3.95;;
49444;SDS011;35323;43.080;-81.378;2023-03-01T15:54:24;4.75;;;3.20;;
49444;SDS011;35323;43.080;-81.378;2023-03-01T15:56:52;4.15;;;3.35;;
49444;SDS011;35323;43.080;-81.378;2023-03-01T15:59:20;8.65;;;4.85;;
49444;SDS011;35323;43.080;-81.378;2023-03-01T16:01:49;4.63;;;3.38;;
49444;SDS011;35323;43.080;-81.378;2023-03-01T16:04:17;7.00;;;4.78;;
49444;SDS011;35323;43.080;-81.378;2023-03-01T16:06:50;7.07;;;3.42;;
49444;SDS011;35323;43.080;-81.378;2023-03-01T16:09:23;6.03;;;3.60;;
49444;SDS011;35323;43.080;-81.378;2023-03-01T16:11:51;8.27;;;4.20;;
49444;SDS011;35323;43.080;-81.378;2023-03-01T16:14:18;3.20;;;2.80;;
49444;SDS011;35323;43.080;-81.378;2023-03-01T16:16:46;6.30;;;3.25;;
49444;SDS011;35323;43.080;-81.378;2023-03-01T16:19:15;3.60;;;3.28;;